createdAt,value
2019-05-14T00:02:22.613Z,5.07
2019-05-14T00:04:52.214Z,2.93
2019-05-14T00:07:22.456Z,3.67
2019-05-14T00:09:52.178Z,2.73
2019-05-14T00:12:24.212Z,5.70
2019-05-14T00:14:53.806Z,8.43
2019-05-14T00:17:23.410Z,4.57
2019-05-14T00:20:06.312Z,4.70
2019-05-14T00:22:25.592Z,7.23
2019-05-14T00:24:55.336Z,5.47
2019-05-14T00:27:27.070Z,4.17
2019-05-14T00:29:56.673Z,5.47
2019-05-14T00:32:26.283Z,6.33
2019-05-14T00:34:55.870Z,7.47
2019-05-14T00:37:25.491Z,5.67
2019-05-14T00:39:55.100Z,4.27
2019-05-14T00:42:24.663Z,5.50
2019-05-14T00:44:57.948Z,7.33
2019-05-14T00:47:25.654Z,7.40
2019-05-14T00:49:55.266Z,7.63
2019-05-14T00:52:24.830Z,6.47
2019-05-14T00:54:54.412Z,6.27
2019-05-14T00:57:24.046Z,7.10
2019-05-14T00:59:53.638Z,5.80
2019-05-14T01:02:23.191Z,4.67
2019-05-14T01:04:52.791Z,6.23
2019-05-14T01:07:22.326Z,7.63
2019-05-14T01:09:52.517Z,5.07
2019-05-14T01:12:22.356Z,5.07
2019-05-14T01:15:06.697Z,5.50
2019-05-14T01:17:23.318Z,7.00
2019-05-14T01:19:52.932Z,5.70
2019-05-14T01:22:25.006Z,8.53
2019-05-14T01:24:54.595Z,5.17
2019-05-14T01:27:24.148Z,5.13
2019-05-14T01:29:53.831Z,6.03
2019-05-14T01:32:24.054Z,4.63
2019-05-14T01:34:53.713Z,3.83
2019-05-14T01:37:23.335Z,4.83
2019-05-14T01:39:53.007Z,4.93
2019-05-14T01:42:25.160Z,4.90
2019-05-14T01:44:54.702Z,4.57
2019-05-14T01:47:24.354Z,5.33
2019-05-14T01:49:53.882Z,6.97
2019-05-14T01:52:24.140Z,5.17
2019-05-14T01:54:53.766Z,7.27
2019-05-14T01:57:23.458Z,6.83
2019-05-14T01:59:53.112Z,5.53
2019-05-14T02:02:23.673Z,5.43
2019-05-14T02:04:53.267Z,5.17
2019-05-14T02:07:22.872Z,4.73
2019-05-14T02:09:52.431Z,4.57
2019-05-14T02:12:22.957Z,3.77
2019-05-14T02:14:52.553Z,3.20
2019-05-14T02:17:22.278Z,3.80
2019-05-14T02:19:51.814Z,3.07
2019-05-14T02:22:24.202Z,8.40
2019-05-14T02:24:53.794Z,2.70
2019-05-14T02:27:23.382Z,4.27
2019-05-14T02:29:52.923Z,6.00
2019-05-14T02:32:23.217Z,5.10
2019-05-14T02:34:52.788Z,3.47
2019-05-14T02:37:22.484Z,4.87
2019-05-14T02:39:52.149Z,3.57
2019-05-14T02:42:28.959Z,3.37
2019-05-14T02:44:58.799Z,4.67
2019-05-14T02:47:29.785Z,2.43
2019-05-14T02:49:59.137Z,3.33
2019-05-14T02:52:40.517Z,5.40
2019-05-14T02:55:10.334Z,3.77
2019-05-14T02:57:39.943Z,3.30
2019-05-14T03:00:10.383Z,3.13
2019-05-14T03:02:42.320Z,4.07
2019-05-14T03:05:12.000Z,2.90
2019-05-14T03:07:41.641Z,2.30
2019-05-14T03:10:11.255Z,4.07
2019-05-14T03:12:41.017Z,2.73
2019-05-14T03:15:10.632Z,2.73
2019-05-14T03:17:40.816Z,2.67
2019-05-14T03:20:10.471Z,2.60
2019-05-14T03:22:56.080Z,4.17
2019-05-14T03:25:13.516Z,3.93
2019-05-14T03:27:43.249Z,2.40
2019-05-14T03:30:13.683Z,4.70
2019-05-14T03:32:45.702Z,5.83
2019-05-14T03:35:15.369Z,7.33
2019-05-14T03:37:45.063Z,5.03
2019-05-14T03:40:14.740Z,7.23
2019-05-14T03:42:44.392Z,3.37
2019-05-14T03:45:13.933Z,6.80
2019-05-14T03:47:44.149Z,4.80
2019-05-14T03:50:13.700Z,5.40
2019-05-14T03:52:43.360Z,3.13
2019-05-14T03:55:12.888Z,5.00
2019-05-14T03:57:42.575Z,4.57
2019-05-14T04:00:12.513Z,4.70
2019-05-14T04:02:42.135Z,5.43
2019-05-14T04:05:11.795Z,5.50
2019-05-14T04:07:42.322Z,4.27
2019-05-14T04:10:11.994Z,4.87
2019-05-14T04:12:42.280Z,8.10
2019-05-14T04:15:12.030Z,5.40
2019-05-14T04:17:42.768Z,3.80
2019-05-14T04:20:13.317Z,3.33
2019-05-14T04:22:44.539Z,4.47
2019-05-14T04:25:14.155Z,4.53
2019-05-14T04:27:44.246Z,5.60
2019-05-14T04:30:14.007Z,5.10
2019-05-14T04:32:43.678Z,4.47
2019-05-14T04:35:13.245Z,3.70
2019-05-14T04:37:42.887Z,4.70
2019-05-14T04:40:12.646Z,4.17
2019-05-14T04:42:43.527Z,3.63
2019-05-14T04:45:13.157Z,4.60
2019-05-14T04:47:42.857Z,4.63
2019-05-14T04:50:12.614Z,3.03
2019-05-14T04:52:44.244Z,3.90
2019-05-14T04:55:13.919Z,7.43
2019-05-14T04:57:43.584Z,3.77
2019-05-14T05:00:13.241Z,3.57
2019-05-14T05:02:42.959Z,3.57
2019-05-14T05:05:12.873Z,3.47
2019-05-14T05:07:42.639Z,3.63
2019-05-14T05:10:12.423Z,3.40
2019-05-14T05:12:43.888Z,4.37
2019-05-14T05:15:13.553Z,3.87
2019-05-14T05:17:48.766Z,4.10
2019-05-14T05:20:14.467Z,2.80
2019-05-14T05:22:45.046Z,5.03
2019-05-14T05:25:14.723Z,4.90
2019-05-14T05:27:44.325Z,4.47
2019-05-14T05:30:13.882Z,3.80
2019-05-14T05:32:49.234Z,4.93
2019-05-14T05:35:18.591Z,5.23
2019-05-14T05:37:49.066Z,3.50
2019-05-14T05:40:19.750Z,3.33
2019-05-14T05:42:49.462Z,5.07
2019-05-14T05:45:19.081Z,5.13
2019-05-14T05:47:57.919Z,3.23
2019-05-14T05:50:19.975Z,4.33
2019-05-14T05:52:53.640Z,2.57
2019-05-14T05:55:22.081Z,3.30
2019-05-14T05:57:51.648Z,7.30
2019-05-14T06:00:31.293Z,4.40
2019-05-14T06:03:00.986Z,3.33
2019-05-14T06:05:30.803Z,4.00
2019-05-14T06:08:00.377Z,7.27
2019-05-14T06:10:30.063Z,6.77
2019-05-14T06:12:59.673Z,7.23
2019-05-14T06:15:43.854Z,3.10
2019-05-14T06:18:14.050Z,5.73
2019-05-14T06:20:32.659Z,11.27
2019-05-14T06:23:02.216Z,17.70
2019-05-14T06:25:31.808Z,14.20
2019-05-14T06:28:01.341Z,5.17
2019-05-14T06:30:32.457Z,10.13
2019-05-14T06:33:02.006Z,5.37
2019-05-14T06:35:31.604Z,5.73
2019-05-14T06:38:01.205Z,6.60
2019-05-14T06:40:30.809Z,3.70
2019-05-14T06:43:00.516Z,4.80
2019-05-14T06:45:30.310Z,3.07
2019-05-14T06:47:59.847Z,2.70
2019-05-14T06:50:29.443Z,6.67
2019-05-14T06:53:00.201Z,3.23
2019-05-14T06:55:29.944Z,3.60
2019-05-14T06:58:00.856Z,4.87
2019-05-14T07:00:34.324Z,3.80
2019-05-14T07:03:08.955Z,6.27
2019-05-14T07:05:38.953Z,3.77
2019-05-14T07:08:09.146Z,4.33
2019-05-14T07:10:39.460Z,3.53
2019-05-14T07:13:09.179Z,4.80
2019-05-14T07:15:38.875Z,3.50
2019-05-14T07:18:08.743Z,3.53
2019-05-14T07:20:39.162Z,3.17
2019-05-14T07:23:09.001Z,3.23
2019-05-14T07:25:39.461Z,3.17
2019-05-14T07:28:09.180Z,1.90
2019-05-14T07:30:39.573Z,3.07
2019-05-14T07:33:09.619Z,3.13
2019-05-14T07:35:39.296Z,3.27
2019-05-14T07:38:09.189Z,3.67
2019-05-14T07:40:39.214Z,3.57
2019-05-14T07:43:09.191Z,6.43
2019-05-14T07:45:38.935Z,4.97
2019-05-14T07:48:09.528Z,4.10
2019-05-14T07:50:40.049Z,5.03
2019-05-14T07:53:09.776Z,5.23
2019-05-14T07:55:39.503Z,6.07
2019-05-14T07:58:09.188Z,5.13
2019-05-14T08:00:40.279Z,2.17
2019-05-14T08:03:10.088Z,3.63
2019-05-14T08:05:39.746Z,3.80
2019-05-14T08:08:09.366Z,4.47
2019-05-14T08:10:39.306Z,3.40
2019-05-14T08:13:09.294Z,3.43
2019-05-14T08:15:39.123Z,2.13
2019-05-14T08:18:08.719Z,2.03
2019-05-14T08:20:38.536Z,6.20
2019-05-14T08:23:09.020Z,2.33
2019-05-14T08:25:39.183Z,4.13
2019-05-14T08:28:08.879Z,6.20
2019-05-14T08:30:39.055Z,2.77
2019-05-14T08:33:12.548Z,4.80
2019-05-14T08:35:42.210Z,2.40
2019-05-14T08:38:12.296Z,3.20
2019-05-14T08:40:42.082Z,4.37
2019-05-14T08:43:11.761Z,2.77
2019-05-14T08:45:41.422Z,4.47
2019-05-14T08:48:11.396Z,3.77
2019-05-14T08:50:41.061Z,2.60
2019-05-14T08:53:10.932Z,4.70
2019-05-14T08:55:40.591Z,4.53
2019-05-14T08:58:13.779Z,4.17
2019-05-14T09:00:41.766Z,3.63
2019-05-14T09:03:11.619Z,3.57
2019-05-14T09:05:41.422Z,5.23
2019-05-14T09:08:11.075Z,3.10
2019-05-14T09:10:40.707Z,3.20
2019-05-14T09:13:10.308Z,7.30
2019-05-14T09:15:39.974Z,4.77
2019-05-14T09:18:11.730Z,4.87
2019-05-14T09:20:40.930Z,5.80
2019-05-14T09:23:10.495Z,3.87
2019-05-14T09:25:47.435Z,8.63
2019-05-14T09:28:14.095Z,5.27
2019-05-14T09:30:43.802Z,7.23
2019-05-14T09:33:13.490Z,5.43
2019-05-14T09:35:43.120Z,7.93
2019-05-14T09:38:12.816Z,5.73
2019-05-14T09:40:42.438Z,5.47
2019-05-14T09:43:15.009Z,4.60
2019-05-14T09:45:44.690Z,5.83
2019-05-14T09:48:14.401Z,4.23
2019-05-14T09:50:44.058Z,5.73
2019-05-14T09:53:18.166Z,5.83
2019-05-14T09:55:49.150Z,6.73
2019-05-14T09:58:19.911Z,4.20
2019-05-14T10:00:50.050Z,3.70
2019-05-14T10:03:19.914Z,5.67
2019-05-14T10:05:50.125Z,4.50
2019-05-14T10:08:20.254Z,4.80
2019-05-14T10:10:49.846Z,3.47
2019-05-14T10:13:22.130Z,4.53
2019-05-14T10:15:51.824Z,3.60
2019-05-14T10:18:21.539Z,9.07
2019-05-14T10:20:51.160Z,6.23
2019-05-14T10:23:22.988Z,3.17
2019-05-14T10:25:52.591Z,5.97
2019-05-14T10:28:23.533Z,2.40
2019-05-14T10:30:53.142Z,7.07
2019-05-14T10:33:23.490Z,6.63
2019-05-14T10:35:53.047Z,4.37
2019-05-14T10:38:22.782Z,3.67
2019-05-14T10:40:52.638Z,4.13
2019-05-14T10:43:24.173Z,4.10
2019-05-14T10:45:53.852Z,4.70
2019-05-14T10:48:23.780Z,2.60
2019-05-14T10:51:01.995Z,7.70
2019-05-14T10:53:24.904Z,6.50
2019-05-14T10:55:54.774Z,5.37
2019-05-14T10:58:26.089Z,2.80
2019-05-14T11:00:55.757Z,3.37
2019-05-14T11:03:30.062Z,2.43
2019-05-14T11:05:59.855Z,4.80
2019-05-14T11:08:30.684Z,2.80
2019-05-14T11:11:03.580Z,2.40
2019-05-14T11:13:31.713Z,4.33
2019-05-14T11:16:01.243Z,5.23
2019-05-14T11:18:30.859Z,3.47
2019-05-14T11:21:18.683Z,3.27
2019-05-14T11:23:31.782Z,3.30
2019-05-14T11:26:01.408Z,3.17
2019-05-14T11:28:31.083Z,3.17
2019-05-14T11:31:00.624Z,5.80
2019-05-14T11:33:31.646Z,4.10
2019-05-14T11:36:01.264Z,1.77
2019-05-14T11:38:37.589Z,1.87
2019-05-14T11:41:04.640Z,3.27
2019-05-14T11:43:34.530Z,4.30
2019-05-14T11:46:04.266Z,3.93
2019-05-14T11:48:34.091Z,2.67
2019-05-14T11:51:03.750Z,2.10
2019-05-14T11:53:33.641Z,4.67
2019-05-14T11:56:03.216Z,4.73
2019-05-14T11:58:33.143Z,7.50
2019-05-14T12:01:02.962Z,4.23
2019-05-14T12:03:32.703Z,3.13
2019-05-14T12:06:02.344Z,3.67
2019-05-14T12:08:32.123Z,1.63
2019-05-14T12:11:01.664Z,2.50
2019-05-14T12:13:34.222Z,5.47
2019-05-14T12:16:03.898Z,3.80
2019-05-14T12:18:35.625Z,2.07
2019-05-14T12:21:05.309Z,2.17
2019-05-14T12:23:35.141Z,3.30
2019-05-14T12:26:05.013Z,2.23
2019-05-14T12:28:35.032Z,124.03
2019-05-14T12:31:04.773Z,77.20
2019-05-14T12:33:34.545Z,19.20
2019-05-14T12:36:04.204Z,10.83
2019-05-14T12:38:34.079Z,12.70
2019-05-14T12:41:03.793Z,7.17
2019-05-14T12:43:33.759Z,16.10
2019-05-14T12:46:03.443Z,25.40
2019-05-14T12:48:33.184Z,32.50
2019-05-14T12:51:02.887Z,36.07
2019-05-14T12:53:32.579Z,21.40
2019-05-14T12:56:02.352Z,17.60
2019-05-14T12:58:32.320Z,12.93
2019-05-14T13:01:02.027Z,11.47
2019-05-14T13:03:33.527Z,14.13
2019-05-14T13:06:03.508Z,11.73
2019-05-14T13:08:33.632Z,7.83
2019-05-14T13:11:04.379Z,8.30
2019-05-14T13:13:34.046Z,12.03
2019-05-14T13:16:04.539Z,9.10
2019-05-14T13:18:34.639Z,6.77
2019-05-14T13:21:04.382Z,7.50
2019-05-14T13:23:34.111Z,6.33
2019-05-14T13:26:03.801Z,6.00
2019-05-14T13:28:39.980Z,7.67
2019-05-14T13:31:18.476Z,4.43
2019-05-14T13:33:49.451Z,9.43
2019-05-14T13:36:20.697Z,2.50
2019-05-14T13:38:51.333Z,2.50
2019-05-14T13:41:23.403Z,3.23
2019-05-14T13:44:15.900Z,4.13
2019-05-14T13:46:41.777Z,2.90
2019-05-14T13:49:20.969Z,4.77
2019-05-14T13:51:50.810Z,1.77
2019-05-14T13:54:31.182Z,2.00
2019-05-14T13:57:02.958Z,2.13
2019-05-14T13:59:44.468Z,2.67
2019-05-14T14:02:19.025Z,2.10
2019-05-14T14:04:49.780Z,1.90
2019-05-14T14:07:20.714Z,1.70
2019-05-14T14:09:53.039Z,2.37
2019-05-14T14:12:25.268Z,2.67
2019-05-14T14:15:03.617Z,2.97
2019-05-14T14:17:39.387Z,2.80
2019-05-14T14:20:24.722Z,3.73
2019-05-14T14:23:21.543Z,5.20
2019-05-14T14:25:39.515Z,9.77
2019-05-14T14:28:10.043Z,32.77
2019-05-14T14:30:40.031Z,92.30
2019-05-14T14:33:09.709Z,40.27
2019-05-14T14:35:39.390Z,24.97
2019-05-14T14:38:09.251Z,15.70
2019-05-14T14:40:39.714Z,9.33
2019-05-14T14:43:09.679Z,15.63
2019-05-14T14:45:45.995Z,12.50
2019-05-14T14:48:12.525Z,43.23
2019-05-14T14:50:42.395Z,37.57
2019-05-14T14:53:11.995Z,75.90
2019-05-14T14:55:41.799Z,67.67
2019-05-14T14:58:11.965Z,43.57
2019-05-14T15:00:59.384Z,16.57
2019-05-14T15:03:48.797Z,18.00
2019-05-14T15:06:30.363Z,8.23
2019-05-14T15:08:58.957Z,12.57
2019-05-14T15:11:29.477Z,9.23
2019-05-14T15:13:59.413Z,10.65
2019-05-14T15:16:29.408Z,9.73
2019-05-14T15:18:59.134Z,11.38
2019-05-14T15:21:29.989Z,11.05
2019-05-14T15:24:10.139Z,11.05
2019-05-14T15:26:31.481Z,7.87
2019-05-14T15:29:01.163Z,9.53
2019-05-14T15:31:32.587Z,8.97
2019-05-14T15:34:02.243Z,8.33
2019-05-14T15:36:32.059Z,6.73
2019-05-14T15:39:01.785Z,4.20
2019-05-14T15:41:31.529Z,7.03
2019-05-14T15:44:01.180Z,6.27
2019-05-14T15:46:31.207Z,5.77
2019-05-14T15:49:01.006Z,4.83
2019-05-14T15:51:30.831Z,6.57
2019-05-14T15:54:15.939Z,5.00
2019-05-14T15:56:31.987Z,5.63
2019-05-14T15:59:01.643Z,49.60
2019-05-14T16:01:31.384Z,46.53
2019-05-14T16:04:01.107Z,18.03
2019-05-14T16:06:31.010Z,7.27
2019-05-14T16:09:00.560Z,6.43
2019-05-14T16:11:30.247Z,52.23
2019-05-14T16:13:59.870Z,29.83
2019-05-14T16:16:29.692Z,64.00
2019-05-14T16:18:59.259Z,24.13
2019-05-14T16:21:29.173Z,26.57
2019-05-14T16:23:58.970Z,6.10
2019-05-14T16:26:29.338Z,1.50
2019-05-14T16:28:59.417Z,1.83
2019-05-14T16:31:31.654Z,5.77
2019-05-14T16:34:00.715Z,3.73
2019-05-14T16:36:30.527Z,2.83
2019-05-14T16:39:00.181Z,3.20
2019-05-14T16:41:30.029Z,5.17
2019-05-14T16:43:59.647Z,2.23
2019-05-14T16:46:29.591Z,1.70
2019-05-14T16:48:59.170Z,3.50
2019-05-14T16:51:28.984Z,2.47
2019-05-14T16:53:59.097Z,7.17
2019-05-14T16:56:28.893Z,2.63
2019-05-14T16:58:59.543Z,4.67
2019-05-14T17:01:33.356Z,2.07
2019-05-14T17:04:00.827Z,2.17
2019-05-14T17:06:34.779Z,3.70
2019-05-14T17:09:08.605Z,3.40
2019-05-14T17:11:39.015Z,1.37
2019-05-14T17:14:09.884Z,2.23
2019-05-14T17:16:39.671Z,1.40
2019-05-14T17:19:09.397Z,2.57
2019-05-14T17:21:41.273Z,2.07
2019-05-14T17:24:10.892Z,1.63
2019-05-14T17:26:40.677Z,0.80
2019-05-14T17:29:10.376Z,1.60
2019-05-14T17:31:40.080Z,1.60
2019-05-14T17:34:09.863Z,1.30
2019-05-14T17:36:39.700Z,3.60
2019-05-14T17:39:09.413Z,1.13
2019-05-14T17:41:41.998Z,1.77
2019-05-14T17:44:10.759Z,1.87
2019-05-14T17:46:40.608Z,3.67
2019-05-14T17:49:10.375Z,4.27
2019-05-14T17:51:40.838Z,2.10
2019-05-14T17:54:10.467Z,2.90
2019-05-14T17:56:40.152Z,3.23
2019-05-14T17:59:09.776Z,3.33
2019-05-14T18:01:39.532Z,1.50
2019-05-14T18:04:09.218Z,6.03
2019-05-14T18:06:38.991Z,3.40
2019-05-14T18:09:09.094Z,2.67
2019-05-14T18:11:40.134Z,4.23
2019-05-14T18:14:11.925Z,4.53
2019-05-14T18:16:41.773Z,3.07
2019-05-14T18:19:11.354Z,2.47
2019-05-14T18:21:41.253Z,5.07
2019-05-14T18:24:10.974Z,5.00
2019-05-14T18:26:41.054Z,4.17
2019-05-14T18:29:10.909Z,2.60
2019-05-14T18:31:44.123Z,6.07
2019-05-14T18:34:12.029Z,3.17
2019-05-14T18:36:41.999Z,4.37
2019-05-14T18:39:11.771Z,3.53
2019-05-14T18:41:41.403Z,5.00
2019-05-14T18:44:11.184Z,1.67
2019-05-14T18:46:40.931Z,3.60
2019-05-14T18:49:10.712Z,3.07
2019-05-14T18:51:40.324Z,5.63
2019-05-14T18:54:10.031Z,3.23
2019-05-14T18:56:39.694Z,4.10
2019-05-14T18:59:09.346Z,6.00
2019-05-14T19:01:39.718Z,2.47
2019-05-14T19:04:09.781Z,3.50
2019-05-14T19:06:39.491Z,4.17
2019-05-14T19:09:10.708Z,3.13
2019-05-14T19:11:40.486Z,3.30
2019-05-14T19:14:10.292Z,2.20
2019-05-14T19:16:40.063Z,3.63
2019-05-14T19:19:09.940Z,3.83
2019-05-14T19:21:39.971Z,2.60
2019-05-14T19:24:10.615Z,3.77
2019-05-14T19:26:40.656Z,5.23
2019-05-14T19:29:10.476Z,4.20
2019-05-14T19:31:40.437Z,3.70
2019-05-14T19:34:09.993Z,5.13
2019-05-14T19:36:40.092Z,6.43
2019-05-14T19:39:09.897Z,4.20
2019-05-14T19:41:39.864Z,4.43
2019-05-14T19:44:09.559Z,3.53
2019-05-14T19:46:39.378Z,4.03
2019-05-14T19:49:08.977Z,5.23
2019-05-14T19:51:38.868Z,5.63
2019-05-14T19:54:08.754Z,8.33
2019-05-14T19:56:51.911Z,4.70
2019-05-14T19:59:10.166Z,4.07
2019-05-14T20:01:39.895Z,2.57
2019-05-14T20:04:09.701Z,4.43
2019-05-14T20:06:39.511Z,3.43
2019-05-14T20:09:09.643Z,3.80
2019-05-14T20:11:40.040Z,1.93
2019-05-14T20:14:09.815Z,2.63
2019-05-14T20:16:39.581Z,3.27
2019-05-14T20:19:09.220Z,2.43
2019-05-14T20:21:39.205Z,3.27
2019-05-14T20:24:09.290Z,3.93
2019-05-14T20:26:39.278Z,3.67
2019-05-14T20:29:09.057Z,2.57
2019-05-14T20:31:39.181Z,2.60
2019-05-14T20:34:08.988Z,3.00
2019-05-14T20:36:39.375Z,2.97
2019-05-14T20:39:09.044Z,1.57
2019-05-14T20:41:38.823Z,7.57
2019-05-14T20:44:08.568Z,8.37
2019-05-14T20:46:38.501Z,38.00
2019-05-14T20:49:08.821Z,24.93
2019-05-14T20:51:39.068Z,23.17
2019-05-14T20:54:09.044Z,19.63
2019-05-14T20:56:40.255Z,9.87
2019-05-14T20:59:10.231Z,8.97
2019-05-14T21:01:40.508Z,27.33
2019-05-14T21:04:10.258Z,25.10
2019-05-14T21:06:40.137Z,24.47
2019-05-14T21:09:09.707Z,27.57
2019-05-14T21:11:39.621Z,18.13
2019-05-14T21:14:09.331Z,16.20
2019-05-14T21:16:39.476Z,17.80
2019-05-14T21:19:09.205Z,18.97
2019-05-14T21:21:39.081Z,5.20
2019-05-14T21:24:09.075Z,6.00
2019-05-14T21:26:40.074Z,7.33
2019-05-14T21:29:09.987Z,9.80
2019-05-14T21:31:40.014Z,11.53
2019-05-14T21:34:10.071Z,6.37
2019-05-14T21:36:42.563Z,10.70
2019-05-14T21:39:12.828Z,4.77
2019-05-14T21:41:42.867Z,6.80
2019-05-14T21:44:12.550Z,8.30
2019-05-14T21:46:42.526Z,5.50
2019-05-14T21:49:12.409Z,6.73
2019-05-14T21:51:42.749Z,6.73
2019-05-14T21:54:13.450Z,5.40
2019-05-14T21:56:43.350Z,5.93
2019-05-14T21:59:13.336Z,8.30
2019-05-14T22:01:43.551Z,4.43
2019-05-14T22:04:13.523Z,6.07
2019-05-14T22:06:43.375Z,6.00
2019-05-14T22:09:13.234Z,4.37
2019-05-14T22:11:43.229Z,3.93
2019-05-14T22:14:13.063Z,4.37
2019-05-14T22:16:48.678Z,3.47
2019-05-14T22:19:15.513Z,4.20
2019-05-14T22:21:45.413Z,6.73
2019-05-14T22:24:15.053Z,5.83
2019-05-14T22:26:44.780Z,3.03
2019-05-14T22:29:14.744Z,2.63
2019-05-14T22:31:44.488Z,3.07
2019-05-14T22:34:14.336Z,4.27
2019-05-14T22:36:48.467Z,3.80
2019-05-14T22:39:19.956Z,2.50
2019-05-14T22:41:49.325Z,3.07
2019-05-14T22:44:19.151Z,2.00
2019-05-14T22:46:49.176Z,5.37
2019-05-14T22:49:19.255Z,2.20
2019-05-14T22:51:49.369Z,2.47
2019-05-14T22:54:20.867Z,3.17
2019-05-14T22:56:52.099Z,2.87
2019-05-14T22:59:21.904Z,2.07
2019-05-14T23:01:51.611Z,2.50
2019-05-14T23:04:21.353Z,1.90
2019-05-14T23:06:51.152Z,3.37
2019-05-14T23:09:21.167Z,3.23
2019-05-14T23:11:51.237Z,3.23
2019-05-14T23:14:20.976Z,4.87
2019-05-14T23:16:50.611Z,6.20
2019-05-14T23:19:20.411Z,4.37
2019-05-14T23:21:50.094Z,5.57
2019-05-14T23:24:19.922Z,7.67
2019-05-14T23:26:52.634Z,9.43
2019-05-14T23:29:22.442Z,9.70
2019-05-14T23:31:52.163Z,5.37
2019-05-14T23:34:22.005Z,4.63
2019-05-14T23:36:51.764Z,8.30
2019-05-14T23:39:21.797Z,4.70
2019-05-14T23:41:51.521Z,4.07
2019-05-14T23:44:21.301Z,4.40
2019-05-14T23:46:50.915Z,4.60
2019-05-14T23:49:20.937Z,14.43
2019-05-14T23:51:50.552Z,3.87
2019-05-14T23:54:20.347Z,3.87
2019-05-14T23:56:50.037Z,4.13
2019-05-14T23:59:19.967Z,4.17
